Booth, Texas
Current Conditions -  °F | °C
As of 4:53 PM on Thursday 27 Nov 2014 (Local Time) from KSGR Reporting Station
Clear Clear  
Wind Chill: 66°   Ceiling: Unl
Heat Index: 66°   Visibility: 10mi
Dew Point: 34°   Wind: 3mph
Humidity: 30%   Direction: 60°ENE
Pressure: 30.41"   Gusts: NA
Location:  29.4892°N, 95.6914°W
Report Text: KSGR 272253Z AUTO 06003KT 10SM CLR 19/01 A3041 RMK AO2 SLP298 T01890011
Loading
Personal Weather Stations






























Interactive Weather Map New forecast layout! Learn more

10-Day Weather Forecast

Advertisements
Track Severe Weather on mobile